sensor_id;sensor_type;location;lat;lon;timestamp;temperature;humidity
15906;DHT22;8051;50.820;4.884;2024-03-02T00:00:54;6.30;99.90
15906;DHT22;8051;50.820;4.884;2024-03-02T00:03:22;6.30;99.90
15906;DHT22;8051;50.820;4.884;2024-03-02T00:05:51;6.30;99.90
15906;DHT22;8051;50.820;4.884;2024-03-02T00:08:24;6.40;99.90
15906;DHT22;8051;50.820;4.884;2024-03-02T00:10:57;6.40;99.90
15906;DHT22;8051;50.820;4.884;2024-03-02T00:13:26;6.50;99.90
15906;DHT22;8051;50.820;4.884;2024-03-02T00:15:54;6.50;99.90
15906;DHT22;8051;50.820;4.884;2024-03-02T00:18:26;6.60;99.90
15906;DHT22;8051;50.820;4.884;2024-03-02T00:20:56;6.60;99.90
15906;DHT22;8051;50.820;4.884;2024-03-02T00:23:26;6.60;99.90
15906;DHT22;8051;50.820;4.884;2024-03-02T00:25:54;6.60;99.90
15906;DHT22;8051;50.820;4.884;2024-03-02T00:28:24;6.60;99.90
15906;DHT22;8051;50.820;4.884;2024-03-02T00:30:59;6.60;99.90
15906;DHT22;8051;50.820;4.884;2024-03-02T00:33:28;6.60;99.90
15906;DHT22;8051;50.820;4.884;2024-03-02T00:35:58;6.50;99.90
15906;DHT22;8051;50.820;4.884;2024-03-02T00:38:27;6.50;99.90
15906;DHT22;8051;50.820;4.884;2024-03-02T00:40:55;6.50;99.90
15906;DHT22;8051;50.820;4.884;2024-03-02T00:43:41;6.50;99.90
15906;DHT22;8051;50.820;4.884;2024-03-02T00:46:15;6.50;99.90
15906;DHT22;8051;50.820;4.884;2024-03-02T00:48:50;6.40;99.90
15906;DHT22;8051;50.820;4.884;2024-03-02T00:51:20;6.40;99.90
15906;DHT22;8051;50.820;4.884;2024-03-02T00:53:48;6.40;99.90
15906;DHT22;8051;50.820;4.884;2024-03-02T00:56:16;6.40;99.90
15906;DHT22;8051;50.820;4.884;2024-03-02T00:58:44;6.30;99.90
15906;DHT22;8051;50.820;4.884;2024-03-02T01:01:12;6.30;99.90
15906;DHT22;8051;50.820;4.884;2024-03-02T01:03:39;6.30;99.90
15906;DHT22;8051;50.820;4.884;2024-03-02T01:06:08;6.30;99.90
15906;DHT22;8051;50.820;4.884;2024-03-02T01:08:37;6.30;99.90
15906;DHT22;8051;50.820;4.884;2024-03-02T01:11:05;6.30;99.90
15906;DHT22;8051;50.820;4.884;2024-03-02T01:13:33;6.30;99.90
15906;DHT22;8051;50.820;4.884;2024-03-02T01:16:00;6.20;99.90
15906;DHT22;8051;50.820;4.884;2024-03-02T01:18:28;6.20;99.90
15906;DHT22;8051;50.820;4.884;2024-03-02T01:20:56;6.20;99.90
15906;DHT22;8051;50.820;4.884;2024-03-02T01:23:24;6.20;99.90
15906;DHT22;8051;50.820;4.884;2024-03-02T01:25:53;6.10;99.90
15906;DHT22;8051;50.820;4.884;2024-03-02T01:28:21;6.10;99.90
15906;DHT22;8051;50.820;4.884;2024-03-02T01:30:49;6.10;99.90
15906;DHT22;8051;50.820;4.884;2024-03-02T01:33:17;6.00;99.90
15906;DHT22;8051;50.820;4.884;2024-03-02T01:35:44;6.10;99.90
15906;DHT22;8051;50.820;4.884;2024-03-02T01:38:12;6.00;99.90
15906;DHT22;8051;50.820;4.884;2024-03-02T01:40:39;6.00;99.90
15906;DHT22;8051;50.820;4.884;2024-03-02T01:43:08;6.00;99.90
15906;DHT22;8051;50.820;4.884;2024-03-02T01:45:36;6.10;99.90
15906;DHT22;8051;50.820;4.884;2024-03-02T01:48:05;6.10;99.90
15906;DHT22;8051;50.820;4.884;2024-03-02T01:50:33;6.10;99.90
15906;DHT22;8051;50.820;4.884;2024-03-02T01:53:01;6.10;99.90
15906;DHT22;8051;50.820;4.884;2024-03-02T01:55:29;6.10;99.90
15906;DHT22;8051;50.820;4.884;2024-03-02T01:57:56;6.10;99.90
15906;DHT22;8051;50.820;4.884;2024-03-02T02:00:26;6.10;99.90
15906;DHT22;8051;50.820;4.884;2024-03-02T02:02:54;6.10;99.90
15906;DHT22;8051;50.820;4.884;2024-03-02T02:05:21;6.10;99.90
15906;DHT22;8051;50.820;4.884;2024-03-02T02:07:49;6.10;99.90
15906;DHT22;8051;50.820;4.884;2024-03-02T02:10:17;6.10;99.90
15906;DHT22;8051;50.820;4.884;2024-03-02T02:12:45;6.00;99.90
15906;DHT22;8051;50.820;4.884;2024-03-02T02:15:27;6.00;99.90
15906;DHT22;8051;50.820;4.884;2024-03-02T02:17:55;6.00;99.90
15906;DHT22;8051;50.820;4.884;2024-03-02T02:20:23;6.00;99.90
15906;DHT22;8051;50.820;4.884;2024-03-02T02:22:58;6.00;99.90
15906;DHT22;8051;50.820;4.884;2024-03-02T02:25:25;6.00;99.90
15906;DHT22;8051;50.820;4.884;2024-03-02T02:27:53;6.00;99.90
15906;DHT22;8051;50.820;4.884;2024-03-02T02:30:21;6.00;99.90
15906;DHT22;8051;50.820;4.884;2024-03-02T02:32:49;6.00;99.90
15906;DHT22;8051;50.820;4.884;2024-03-02T02:35:17;6.00;99.90
15906;DHT22;8051;50.820;4.884;2024-03-02T02:37:45;6.00;99.90
15906;DHT22;8051;50.820;4.884;2024-03-02T02:40:14;6.00;99.90
15906;DHT22;8051;50.820;4.884;2024-03-02T02:42:42;6.00;99.90
15906;DHT22;8051;50.820;4.884;2024-03-02T02:45:09;6.00;99.90
15906;DHT22;8051;50.820;4.884;2024-03-02T02:47:39;6.00;99.90
15906;DHT22;8051;50.820;4.884;2024-03-02T02:50:08;6.00;99.90
15906;DHT22;8051;50.820;4.884;2024-03-02T02:52:36;5.90;99.90
15906;DHT22;8051;50.820;4.884;2024-03-02T02:55:06;6.00;99.90
15906;DHT22;8051;50.820;4.884;2024-03-02T02:57:36;6.00;99.90
15906;DHT22;8051;50.820;4.884;2024-03-02T03:00:06;6.00;99.90
15906;DHT22;8051;50.820;4.884;2024-03-02T03:02:37;6.10;99.90
15906;DHT22;8051;50.820;4.884;2024-03-02T03:05:07;6.10;99.90
15906;DHT22;8051;50.820;4.884;2024-03-02T03:07:35;6.10;99.90
15906;DHT22;8051;50.820;4.884;2024-03-02T03:10:03;6.10;99.90
15906;DHT22;8051;50.820;4.884;2024-03-02T03:12:32;6.10;99.90
15906;DHT22;8051;50.820;4.884;2024-03-02T03:15:01;6.20;99.90
15906;DHT22;8051;50.820;4.884;2024-03-02T03:17:30;6.20;99.90
15906;DHT22;8051;50.820;4.884;2024-03-02T03:19:57;6.20;99.90
15906;DHT22;8051;50.820;4.884;2024-03-02T03:22:25;6.20;99.90
15906;DHT22;8051;50.820;4.884;2024-03-02T03:24:52;6.20;99.90
15906;DHT22;8051;50.820;4.884;2024-03-02T03:27:19;6.30;99.90
15906;DHT22;8051;50.820;4.884;2024-03-02T03:29:47;6.30;99.90
15906;DHT22;8051;50.820;4.884;2024-03-02T03:32:16;6.20;99.90
15906;DHT22;8051;50.820;4.884;2024-03-02T03:34:44;6.10;99.90
15906;DHT22;8051;50.820;4.884;2024-03-02T03:37:11;5.90;99.90
15906;DHT22;8051;50.820;4.884;2024-03-02T03:39:39;5.80;99.90
15906;DHT22;8051;50.820;4.884;2024-03-02T03:42:07;5.70;99.90
15906;DHT22;8051;50.820;4.884;2024-03-02T03:44:34;5.60;99.90
15906;DHT22;8051;50.820;4.884;2024-03-02T03:47:02;5.50;99.90
15906;DHT22;8051;50.820;4.884;2024-03-02T03:49:31;5.40;99.90
15906;DHT22;8051;50.820;4.884;2024-03-02T03:51:58;5.30;99.90
15906;DHT22;8051;50.820;4.884;2024-03-02T03:54:26;5.30;99.90
15906;DHT22;8051;50.820;4.884;2024-03-02T03:56:54;5.30;99.90
15906;DHT22;8051;50.820;4.884;2024-03-02T03:59:22;5.20;99.90
15906;DHT22;8051;50.820;4.884;2024-03-02T04:01:50;5.20;99.90
15906;DHT22;8051;50.820;4.884;2024-03-02T04:04:17;5.20;99.90
15906;DHT22;8051;50.820;4.884;2024-03-02T04:06:46;5.20;99.90
15906;DHT22;8051;50.820;4.884;2024-03-02T04:09:14;5.20;99.90
15906;DHT22;8051;50.820;4.884;2024-03-02T04:11:40;5.20;99.90
15906;DHT22;8051;50.820;4.884;2024-03-02T04:14:08;5.40;99.90
15906;DHT22;8051;50.820;4.884;2024-03-02T04:16:35;5.50;99.90
15906;DHT22;8051;50.820;4.884;2024-03-02T04:19:03;5.50;99.90
15906;DHT22;8051;50.820;4.884;2024-03-02T04:21:31;5.60;99.90
15906;DHT22;8051;50.820;4.884;2024-03-02T04:24:00;5.60;99.90
15906;DHT22;8051;50.820;4.884;2024-03-02T04:26:27;5.60;99.90
15906;DHT22;8051;50.820;4.884;2024-03-02T04:28:54;5.60;99.90
15906;DHT22;8051;50.820;4.884;2024-03-02T04:31:22;5.50;99.90
15906;DHT22;8051;50.820;4.884;2024-03-02T04:33:49;5.60;99.90
15906;DHT22;8051;50.820;4.884;2024-03-02T04:36:17;5.50;99.90
15906;DHT22;8051;50.820;4.884;2024-03-02T04:38:44;5.50;99.90
15906;DHT22;8051;50.820;4.884;2024-03-02T04:41:13;5.40;99.90
15906;DHT22;8051;50.820;4.884;2024-03-02T04:43:41;5.30;99.90
15906;DHT22;8051;50.820;4.884;2024-03-02T04:46:08;5.30;99.90
15906;DHT22;8051;50.820;4.884;2024-03-02T04:48:36;5.20;99.90
15906;DHT22;8051;50.820;4.884;2024-03-02T04:51:04;5.20;99.90
15906;DHT22;8051;50.820;4.884;2024-03-02T04:53:31;5.10;99.90
15906;DHT22;8051;50.820;4.884;2024-03-02T04:55:59;5.10;99.90
15906;DHT22;8051;50.820;4.884;2024-03-02T04:58:41;5.10;99.90
15906;DHT22;8051;50.820;4.884;2024-03-02T05:01:09;5.00;99.90
15906;DHT22;8051;50.820;4.884;2024-03-02T05:03:36;5.00;99.90
15906;DHT22;8051;50.820;4.884;2024-03-02T05:06:04;4.90;99.90
15906;DHT22;8051;50.820;4.884;2024-03-02T05:08:32;4.90;99.90
15906;DHT22;8051;50.820;4.884;2024-03-02T05:10:59;4.90;99.90
15906;DHT22;8051;50.820;4.884;2024-03-02T05:13:49;4.90;99.90
15906;DHT22;8051;50.820;4.884;2024-03-02T05:16:15;4.80;99.90
15906;DHT22;8051;50.820;4.884;2024-03-02T05:18:42;4.80;99.90
15906;DHT22;8051;50.820;4.884;2024-03-02T05:21:10;4.80;99.90
15906;DHT22;8051;50.820;4.884;2024-03-02T05:23:37;4.70;99.90
15906;DHT22;8051;50.820;4.884;2024-03-02T05:26:05;4.80;99.90
15906;DHT22;8051;50.820;4.884;2024-03-02T05:28:34;4.80;99.90
15906;DHT22;8051;50.820;4.884;2024-03-02T05:31:03;4.80;99.90
15906;DHT22;8051;50.820;4.884;2024-03-02T05:33:31;4.70;99.90
15906;DHT22;8051;50.820;4.884;2024-03-02T05:35:59;4.70;99.90
15906;DHT22;8051;50.820;4.884;2024-03-02T05:38:27;4.70;99.90
15906;DHT22;8051;50.820;4.884;2024-03-02T05:40:55;4.60;99.90
15906;DHT22;8051;50.820;4.884;2024-03-02T05:43:22;4.60;99.90
15906;DHT22;8051;50.820;4.884;2024-03-02T05:45:50;4.50;99.90
15906;DHT22;8051;50.820;4.884;2024-03-02T05:48:18;4.50;99.90
15906;DHT22;8051;50.820;4.884;2024-03-02T05:50:46;4.50;99.90
15906;DHT22;8051;50.820;4.884;2024-03-02T05:53:14;4.50;99.90
15906;DHT22;8051;50.820;4.884;2024-03-02T05:55:41;4.40;99.90
15906;DHT22;8051;50.820;4.884;2024-03-02T05:58:09;4.40;99.90
15906;DHT22;8051;50.820;4.884;2024-03-02T06:00:48;4.30;99.90
15906;DHT22;8051;50.820;4.884;2024-03-02T06:03:16;4.30;99.90
15906;DHT22;8051;50.820;4.884;2024-03-02T06:05:45;4.20;99.90
15906;DHT22;8051;50.820;4.884;2024-03-02T06:08:15;4.20;99.90
15906;DHT22;8051;50.820;4.884;2024-03-02T06:10:42;4.20;99.90
15906;DHT22;8051;50.820;4.884;2024-03-02T06:13:10;4.20;99.90
15906;DHT22;8051;50.820;4.884;2024-03-02T06:15:37;4.20;99.90
15906;DHT22;8051;50.820;4.884;2024-03-02T06:18:05;4.20;99.90
15906;DHT22;8051;50.820;4.884;2024-03-02T06:20:33;4.10;99.90
15906;DHT22;8051;50.820;4.884;2024-03-02T06:23:03;4.10;99.90
15906;DHT22;8051;50.820;4.884;2024-03-02T06:25:31;4.10;99.90
15906;DHT22;8051;50.820;4.884;2024-03-02T06:27:58;4.10;99.90
15906;DHT22;8051;50.820;4.884;2024-03-02T06:30:25;4.00;99.90
15906;DHT22;8051;50.820;4.884;2024-03-02T06:32:53;4.00;99.90
15906;DHT22;8051;50.820;4.884;2024-03-02T06:35:20;4.00;99.90
15906;DHT22;8051;50.820;4.884;2024-03-02T06:37:48;4.00;99.90
15906;DHT22;8051;50.820;4.884;2024-03-02T06:40:17;4.00;99.90
15906;DHT22;8051;50.820;4.884;2024-03-02T06:42:44;4.00;99.90
15906;DHT22;8051;50.820;4.884;2024-03-02T06:45:12;4.00;99.90
15906;DHT22;8051;50.820;4.884;2024-03-02T06:47:39;4.00;99.90
15906;DHT22;8051;50.820;4.884;2024-03-02T06:50:08;4.10;99.90
15906;DHT22;8051;50.820;4.884;2024-03-02T06:52:35;4.10;99.90
15906;DHT22;8051;50.820;4.884;2024-03-02T06:55:04;4.10;99.90
15906;DHT22;8051;50.820;4.884;2024-03-02T06:57:33;4.10;99.90
15906;DHT22;8051;50.820;4.884;2024-03-02T07:00:00;4.10;99.90
15906;DHT22;8051;50.820;4.884;2024-03-02T07:02:31;4.10;99.90
15906;DHT22;8051;50.820;4.884;2024-03-02T07:04:58;4.10;99.90
15906;DHT22;8051;50.820;4.884;2024-03-02T07:07:25;4.10;99.90
15906;DHT22;8051;50.820;4.884;2024-03-02T07:09:53;4.10;99.90
15906;DHT22;8051;50.820;4.884;2024-03-02T07:12:20;4.20;99.90
15906;DHT22;8051;50.820;4.884;2024-03-02T07:14:49;4.20;99.90
15906;DHT22;8051;50.820;4.884;2024-03-02T07:17:36;4.20;99.90
15906;DHT22;8051;50.820;4.884;2024-03-02T07:20:04;4.20;99.90
15906;DHT22;8051;50.820;4.884;2024-03-02T07:22:32;4.20;99.90
15906;DHT22;8051;50.820;4.884;2024-03-02T07:25:00;4.30;99.90
15906;DHT22;8051;50.820;4.884;2024-03-02T07:27:28;4.40;99.90
15906;DHT22;8051;50.820;4.884;2024-03-02T07:29:59;4.50;99.90
15906;DHT22;8051;50.820;4.884;2024-03-02T07:32:26;4.50;99.90
15906;DHT22;8051;50.820;4.884;2024-03-02T07:34:54;4.60;99.90
15906;DHT22;8051;50.820;4.884;2024-03-02T07:37:21;4.70;99.90
15906;DHT22;8051;50.820;4.884;2024-03-02T07:39:49;4.70;99.90
15906;DHT22;8051;50.820;4.884;2024-03-02T07:42:16;4.80;99.90
15906;DHT22;8051;50.820;4.884;2024-03-02T07:44:44;4.90;99.90
15906;DHT22;8051;50.820;4.884;2024-03-02T07:47:13;4.90;99.90
15906;DHT22;8051;50.820;4.884;2024-03-02T07:49:41;5.00;99.90
15906;DHT22;8051;50.820;4.884;2024-03-02T07:52:08;5.10;99.90
15906;DHT22;8051;50.820;4.884;2024-03-02T07:54:36;5.10;99.90
15906;DHT22;8051;50.820;4.884;2024-03-02T07:57:03;5.20;99.90
15906;DHT22;8051;50.820;4.884;2024-03-02T07:59:31;5.20;99.90
15906;DHT22;8051;50.820;4.884;2024-03-02T08:01:58;5.30;99.90
15906;DHT22;8051;50.820;4.884;2024-03-02T08:04:28;5.40;99.90
15906;DHT22;8051;50.820;4.884;2024-03-02T08:06:55;5.50;99.90
15906;DHT22;8051;50.820;4.884;2024-03-02T08:09:23;5.60;99.90
15906;DHT22;8051;50.820;4.884;2024-03-02T08:11:51;5.70;99.90
15906;DHT22;8051;50.820;4.884;2024-03-02T08:14:19;5.80;99.90
15906;DHT22;8051;50.820;4.884;2024-03-02T08:16:46;5.90;99.90
15906;DHT22;8051;50.820;4.884;2024-03-02T08:19:14;6.00;99.90
15906;DHT22;8051;50.820;4.884;2024-03-02T08:21:43;6.10;99.90
15906;DHT22;8051;50.820;4.884;2024-03-02T08:24:10;6.20;99.90
15906;DHT22;8051;50.820;4.884;2024-03-02T08:26:38;6.30;99.90
15906;DHT22;8051;50.820;4.884;2024-03-02T08:29:05;6.40;99.90
15906;DHT22;8051;50.820;4.884;2024-03-02T08:31:33;6.50;99.90
15906;DHT22;8051;50.820;4.884;2024-03-02T08:34:00;6.60;99.90
15906;DHT22;8051;50.820;4.884;2024-03-02T08:36:28;6.60;99.90
15906;DHT22;8051;50.820;4.884;2024-03-02T08:38:56;6.70;99.90
15906;DHT22;8051;50.820;4.884;2024-03-02T08:41:24;6.80;99.90
15906;DHT22;8051;50.820;4.884;2024-03-02T08:43:51;6.80;99.90
15906;DHT22;8051;50.820;4.884;2024-03-02T08:46:18;6.90;99.90
15906;DHT22;8051;50.820;4.884;2024-03-02T08:48:46;7.00;99.90
15906;DHT22;8051;50.820;4.884;2024-03-02T08:51:13;7.10;99.90
15906;DHT22;8051;50.820;4.884;2024-03-02T08:53:41;7.20;99.90
15906;DHT22;8051;50.820;4.884;2024-03-02T08:56:10;7.20;99.90
15906;DHT22;8051;50.820;4.884;2024-03-02T08:58:38;7.30;99.90
15906;DHT22;8051;50.820;4.884;2024-03-02T09:01:06;7.40;99.90
15906;DHT22;8051;50.820;4.884;2024-03-02T09:03:34;7.50;99.90
15906;DHT22;8051;50.820;4.884;2024-03-02T09:06:01;7.60;99.90
15906;DHT22;8051;50.820;4.884;2024-03-02T09:08:29;7.70;99.90
15906;DHT22;8051;50.820;4.884;2024-03-02T09:10:56;7.90;99.90
15906;DHT22;8051;50.820;4.884;2024-03-02T09:13:25;8.00;99.90
15906;DHT22;8051;50.820;4.884;2024-03-02T09:15:53;8.00;99.90
15906;DHT22;8051;50.820;4.884;2024-03-02T09:18:20;8.10;99.90
15906;DHT22;8051;50.820;4.884;2024-03-02T09:20:48;8.20;99.90
15906;DHT22;8051;50.820;4.884;2024-03-02T09:23:15;8.20;99.90
15906;DHT22;8051;50.820;4.884;2024-03-02T09:25:43;8.20;99.90
15906;DHT22;8051;50.820;4.884;2024-03-02T09:28:10;8.30;99.90
15906;DHT22;8051;50.820;4.884;2024-03-02T09:30:39;8.30;99.90
15906;DHT22;8051;50.820;4.884;2024-03-02T09:33:07;8.40;99.90
15906;DHT22;8051;50.820;4.884;2024-03-02T09:35:34;8.50;99.90
15906;DHT22;8051;50.820;4.884;2024-03-02T09:38:02;8.60;99.90
15906;DHT22;8051;50.820;4.884;2024-03-02T09:40:29;8.70;99.90
15906;DHT22;8051;50.820;4.884;2024-03-02T09:42:57;8.90;99.90
15906;DHT22;8051;50.820;4.884;2024-03-02T09:45:26;9.10;99.90
15906;DHT22;8051;50.820;4.884;2024-03-02T09:47:55;9.30;99.90
15906;DHT22;8051;50.820;4.884;2024-03-02T09:50:22;9.50;99.90
15906;DHT22;8051;50.820;4.884;2024-03-02T09:52:50;9.70;99.90
15906;DHT22;8051;50.820;4.884;2024-03-02T09:55:17;9.90;99.90
15906;DHT22;8051;50.820;4.884;2024-03-02T09:57:45;10.00;99.90
15906;DHT22;8051;50.820;4.884;2024-03-02T10:00:15;10.00;99.90
15906;DHT22;8051;50.820;4.884;2024-03-02T10:02:43;10.00;99.90
15906;DHT22;8051;50.820;4.884;2024-03-02T10:05:13;10.00;99.90
15906;DHT22;8051;50.820;4.884;2024-03-02T10:07:59;9.90;99.90
15906;DHT22;8051;50.820;4.884;2024-03-02T10:10:34;9.80;99.90
15906;DHT22;8051;50.820;4.884;2024-03-02T10:13:06;9.70;99.90
15906;DHT22;8051;50.820;4.884;2024-03-02T10:15:36;9.70;99.90
15906;DHT22;8051;50.820;4.884;2024-03-02T10:18:04;9.70;99.90
15906;DHT22;8051;50.820;4.884;2024-03-02T10:20:33;9.70;99.90
15906;DHT22;8051;50.820;4.884;2024-03-02T10:23:11;9.80;99.90
15906;DHT22;8051;50.820;4.884;2024-03-02T10:25:38;9.90;99.90
15906;DHT22;8051;50.820;4.884;2024-03-02T10:28:06;10.00;99.90
15906;DHT22;8051;50.820;4.884;2024-03-02T10:30:34;10.10;99.90
15906;DHT22;8051;50.820;4.884;2024-03-02T10:33:02;10.20;99.90
15906;DHT22;8051;50.820;4.884;2024-03-02T10:35:31;10.20;99.90
15906;DHT22;8051;50.820;4.884;2024-03-02T10:38:04;10.20;99.90
15906;DHT22;8051;50.820;4.884;2024-03-02T10:40:32;10.30;99.90
15906;DHT22;8051;50.820;4.884;2024-03-02T10:43:01;10.40;99.90
15906;DHT22;8051;50.820;4.884;2024-03-02T10:45:31;10.40;99.90
15906;DHT22;8051;50.820;4.884;2024-03-02T10:48:00;10.40;99.90
15906;DHT22;8051;50.820;4.884;2024-03-02T10:50:29;10.50;99.90
15906;DHT22;8051;50.820;4.884;2024-03-02T10:52:57;10.50;99.90
15906;DHT22;8051;50.820;4.884;2024-03-02T10:55:26;10.50;99.90
15906;DHT22;8051;50.820;4.884;2024-03-02T10:57:54;10.60;99.90
15906;DHT22;8051;50.820;4.884;2024-03-02T11:00:25;10.80;99.90
15906;DHT22;8051;50.820;4.884;2024-03-02T11:02:57;11.00;99.90
15906;DHT22;8051;50.820;4.884;2024-03-02T11:05:27;11.10;99.90
15906;DHT22;8051;50.820;4.884;2024-03-02T11:08:00;11.20;99.90
15906;DHT22;8051;50.820;4.884;2024-03-02T11:10:35;11.20;99.90
15906;DHT22;8051;50.820;4.884;2024-03-02T11:13:05;11.30;99.90
15906;DHT22;8051;50.820;4.884;2024-03-02T11:15:36;11.40;99.90
15906;DHT22;8051;50.820;4.884;2024-03-02T11:18:05;11.40;99.90
15906;DHT22;8051;50.820;4.884;2024-03-02T11:20:36;11.70;99.90
15906;DHT22;8051;50.820;4.884;2024-03-02T11:23:06;11.80;99.90
15906;DHT22;8051;50.820;4.884;2024-03-02T11:25:35;11.90;99.90
15906;DHT22;8051;50.820;4.884;2024-03-02T11:28:05;12.00;99.90
15906;DHT22;8051;50.820;4.884;2024-03-02T11:30:49;12.00;99.90
15906;DHT22;8051;50.820;4.884;2024-03-02T11:33:24;12.10;99.90
15906;DHT22;8051;50.820;4.884;2024-03-02T11:35:53;12.10;99.90
15906;DHT22;8051;50.820;4.884;2024-03-02T11:38:21;12.10;99.90
15906;DHT22;8051;50.820;4.884;2024-03-02T11:40:50;12.10;99.90
15906;DHT22;8051;50.820;4.884;2024-03-02T11:43:17;12.20;99.90
15906;DHT22;8051;50.820;4.884;2024-03-02T11:45:46;12.20;99.90
15906;DHT22;8051;50.820;4.884;2024-03-02T11:48:15;12.20;99.90
15906;DHT22;8051;50.820;4.884;2024-03-02T11:50:46;12.20;99.90
15906;DHT22;8051;50.820;4.884;2024-03-02T11:53:14;12.20;99.90
15906;DHT22;8051;50.820;4.884;2024-03-02T11:55:43;12.30;99.90
15906;DHT22;8051;50.820;4.884;2024-03-02T11:58:14;12.30;99.90
15906;DHT22;8051;50.820;4.884;2024-03-02T12:00:43;12.30;99.90
15906;DHT22;8051;50.820;4.884;2024-03-02T12:03:13;12.30;99.90
15906;DHT22;8051;50.820;4.884;2024-03-02T12:05:41;12.30;99.90
15906;DHT22;8051;50.820;4.884;2024-03-02T12:08:10;12.30;99.90
15906;DHT22;8051;50.820;4.884;2024-03-02T12:10:38;12.30;99.90
15906;DHT22;8051;50.820;4.884;2024-03-02T12:13:06;12.40;99.90
15906;DHT22;8051;50.820;4.884;2024-03-02T12:15:39;12.40;99.90
15906;DHT22;8051;50.820;4.884;2024-03-02T12:18:06;12.50;99.90
15906;DHT22;8051;50.820;4.884;2024-03-02T12:20:34;12.50;99.90
15906;DHT22;8051;50.820;4.884;2024-03-02T12:23:03;12.70;99.90
15906;DHT22;8051;50.820;4.884;2024-03-02T12:25:32;12.80;99.90
15906;DHT22;8051;50.820;4.884;2024-03-02T12:28:01;12.90;99.90
15906;DHT22;8051;50.820;4.884;2024-03-02T12:30:30;12.90;99.90
15906;DHT22;8051;50.820;4.884;2024-03-02T12:32:59;13.00;99.90
15906;DHT22;8051;50.820;4.884;2024-03-02T12:35:27;13.00;99.90
15906;DHT22;8051;50.820;4.884;2024-03-02T12:37:55;13.10;99.90
15906;DHT22;8051;50.820;4.884;2024-03-02T12:40:24;13.10;99.90
15906;DHT22;8051;50.820;4.884;2024-03-02T12:42:51;13.10;99.90
15906;DHT22;8051;50.820;4.884;2024-03-02T12:45:19;13.30;99.90
15906;DHT22;8051;50.820;4.884;2024-03-02T12:47:49;13.30;99.90
15906;DHT22;8051;50.820;4.884;2024-03-02T12:50:19;13.30;99.90
15906;DHT22;8051;50.820;4.884;2024-03-02T12:52:51;13.30;99.90
15906;DHT22;8051;50.820;4.884;2024-03-02T12:55:20;13.30;99.90
15906;DHT22;8051;50.820;4.884;2024-03-02T12:57:50;13.20;99.90
15906;DHT22;8051;50.820;4.884;2024-03-02T13:00:19;13.20;99.90
15906;DHT22;8051;50.820;4.884;2024-03-02T13:02:47;13.20;99.90
15906;DHT22;8051;50.820;4.884;2024-03-02T13:05:18;13.20;99.90
15906;DHT22;8051;50.820;4.884;2024-03-02T13:07:47;13.30;99.90
15906;DHT22;8051;50.820;4.884;2024-03-02T13:10:14;13.70;99.90
15906;DHT22;8051;50.820;4.884;2024-03-02T13:12:42;14.00;99.90
15906;DHT22;8051;50.820;4.884;2024-03-02T13:15:09;14.00;99.90
15906;DHT22;8051;50.820;4.884;2024-03-02T13:17:39;13.80;99.90
15906;DHT22;8051;50.820;4.884;2024-03-02T13:20:07;13.70;99.90
15906;DHT22;8051;50.820;4.884;2024-03-02T13:22:37;13.80;99.90
15906;DHT22;8051;50.820;4.884;2024-03-02T13:25:05;13.70;99.90
15906;DHT22;8051;50.820;4.884;2024-03-02T13:27:36;13.50;99.90
15906;DHT22;8051;50.820;4.884;2024-03-02T13:30:04;13.40;99.90
15906;DHT22;8051;50.820;4.884;2024-03-02T13:32:34;13.30;99.90
15906;DHT22;8051;50.820;4.884;2024-03-02T13:35:02;13.40;99.90
15906;DHT22;8051;50.820;4.884;2024-03-02T13:37:30;13.80;99.90
15906;DHT22;8051;50.820;4.884;2024-03-02T13:39:59;14.20;99.90
15906;DHT22;8051;50.820;4.884;2024-03-02T13:42:26;14.30;99.90
15906;DHT22;8051;50.820;4.884;2024-03-02T13:44:53;14.30;99.90
15906;DHT22;8051;50.820;4.884;2024-03-02T13:47:21;14.40;99.90
15906;DHT22;8051;50.820;4.884;2024-03-02T13:49:48;14.40;99.90
15906;DHT22;8051;50.820;4.884;2024-03-02T13:52:16;14.40;99.90
15906;DHT22;8051;50.820;4.884;2024-03-02T13:54:44;14.30;99.90
15906;DHT22;8051;50.820;4.884;2024-03-02T13:57:13;14.20;99.90
15906;DHT22;8051;50.820;4.884;2024-03-02T13:59:41;13.90;99.90
15906;DHT22;8051;50.820;4.884;2024-03-02T14:02:09;13.90;99.90
15906;DHT22;8051;50.820;4.884;2024-03-02T14:04:37;13.90;99.90
15906;DHT22;8051;50.820;4.884;2024-03-02T14:07:05;13.80;99.90
15906;DHT22;8051;50.820;4.884;2024-03-02T14:09:34;13.70;99.90
15906;DHT22;8051;50.820;4.884;2024-03-02T14:12:02;13.80;99.90
15906;DHT22;8051;50.820;4.884;2024-03-02T14:14:32;13.80;99.90
15906;DHT22;8051;50.820;4.884;2024-03-02T14:17:00;14.00;99.90
15906;DHT22;8051;50.820;4.884;2024-03-02T14:19:30;14.10;99.90
15906;DHT22;8051;50.820;4.884;2024-03-02T14:21:57;14.20;99.90
15906;DHT22;8051;50.820;4.884;2024-03-02T14:24:25;14.30;99.90
15906;DHT22;8051;50.820;4.884;2024-03-02T14:26:55;14.40;99.90
15906;DHT22;8051;50.820;4.884;2024-03-02T14:29:23;14.30;99.90
15906;DHT22;8051;50.820;4.884;2024-03-02T14:31:52;14.20;99.90
15906;DHT22;8051;50.820;4.884;2024-03-02T14:34:19;14.00;99.90
15906;DHT22;8051;50.820;4.884;2024-03-02T14:36:48;13.60;99.90
15906;DHT22;8051;50.820;4.884;2024-03-02T14:39:15;13.40;99.90
15906;DHT22;8051;50.820;4.884;2024-03-02T14:41:44;13.40;99.90
15906;DHT22;8051;50.820;4.884;2024-03-02T14:44:12;13.30;99.90
15906;DHT22;8051;50.820;4.884;2024-03-02T14:46:39;13.30;99.90
15906;DHT22;8051;50.820;4.884;2024-03-02T14:49:08;13.30;99.90
15906;DHT22;8051;50.820;4.884;2024-03-02T14:51:36;13.30;99.90
15906;DHT22;8051;50.820;4.884;2024-03-02T14:54:04;13.30;99.90
15906;DHT22;8051;50.820;4.884;2024-03-02T14:56:32;13.30;99.90
15906;DHT22;8051;50.820;4.884;2024-03-02T14:58:59;13.40;99.90
15906;DHT22;8051;50.820;4.884;2024-03-02T15:01:27;13.40;99.90
15906;DHT22;8051;50.820;4.884;2024-03-02T15:03:55;13.40;99.90
15906;DHT22;8051;50.820;4.884;2024-03-02T15:06:24;13.40;99.90
15906;DHT22;8051;50.820;4.884;2024-03-02T15:08:51;13.60;99.90
15906;DHT22;8051;50.820;4.884;2024-03-02T15:11:20;13.80;99.90
15906;DHT22;8051;50.820;4.884;2024-03-02T15:13:48;14.00;99.90
15906;DHT22;8051;50.820;4.884;2024-03-02T15:16:15;14.10;99.90
15906;DHT22;8051;50.820;4.884;2024-03-02T15:18:42;14.20;99.90
15906;DHT22;8051;50.820;4.884;2024-03-02T15:21:11;14.10;99.90
15906;DHT22;8051;50.820;4.884;2024-03-02T15:23:40;14.00;99.90
15906;DHT22;8051;50.820;4.884;2024-03-02T15:26:08;13.80;99.90
15906;DHT22;8051;50.820;4.884;2024-03-02T15:28:35;13.70;99.90
15906;DHT22;8051;50.820;4.884;2024-03-02T15:31:03;13.70;99.90
15906;DHT22;8051;50.820;4.884;2024-03-02T15:33:30;13.60;99.90
15906;DHT22;8051;50.820;4.884;2024-03-02T15:35:59;13.70;99.90
15906;DHT22;8051;50.820;4.884;2024-03-02T15:38:27;13.70;99.90
15906;DHT22;8051;50.820;4.884;2024-03-02T15:40:56;13.70;99.90
15906;DHT22;8051;50.820;4.884;2024-03-02T15:43:23;13.50;99.90
15906;DHT22;8051;50.820;4.884;2024-03-02T15:45:51;13.30;99.90
15906;DHT22;8051;50.820;4.884;2024-03-02T15:48:18;13.10;99.90
15906;DHT22;8051;50.820;4.884;2024-03-02T15:50:45;13.00;99.90
15906;DHT22;8051;50.820;4.884;2024-03-02T15:53:12;12.80;99.90
15906;DHT22;8051;50.820;4.884;2024-03-02T15:55:40;12.70;99.90
15906;DHT22;8051;50.820;4.884;2024-03-02T15:58:09;12.60;99.90
15906;DHT22;8051;50.820;4.884;2024-03-02T16:00:37;12.50;99.90
15906;DHT22;8051;50.820;4.884;2024-03-02T16:03:05;12.40;99.90